sensor_id;sensor_type;location;lat;lon;timestamp;P1;durP1;ratioP1;P2;durP2;ratioP2
64915;SDS011;51427;-27.442;153.014;2024-01-30T00:00:42;7.35;;;2.25;;
64915;SDS011;51427;-27.442;153.014;2024-01-30T00:03:10;8.25;;;2.60;;
64915;SDS011;51427;-27.442;153.014;2024-01-30T00:05:37;9.02;;;2.42;;
64915;SDS011;51427;-27.442;153.014;2024-01-30T00:08:05;10.23;;;2.33;;
64915;SDS011;51427;-27.442;153.014;2024-01-30T00:10:33;9.13;;;2.42;;
64915;SDS011;51427;-27.442;153.014;2024-01-30T00:13:02;9.35;;;2.40;;
64915;SDS011;51427;-27.442;153.014;2024-01-30T00:15:29;9.85;;;2.25;;
64915;SDS011;51427;-27.442;153.014;2024-01-30T00:17:57;5.10;;;2.10;;
64915;SDS011;51427;-27.442;153.014;2024-01-30T00:20:25;16.25;;;2.35;;
64915;SDS011;51427;-27.442;153.014;2024-01-30T00:22:52;8.98;;;1.98;;
64915;SDS011;51427;-27.442;153.014;2024-01-30T00:25:20;8.45;;;2.00;;
64915;SDS011;51427;-27.442;153.014;2024-01-30T00:27:48;9.98;;;2.53;;
64915;SDS011;51427;-27.442;153.014;2024-01-30T00:30:15;7.35;;;2.15;;
64915;SDS011;51427;-27.442;153.014;2024-01-30T00:32:43;9.25;;;2.30;;
64915;SDS011;51427;-27.442;153.014;2024-01-30T00:35:11;6.90;;;2.47;;
64915;SDS011;51427;-27.442;153.014;2024-01-30T00:37:39;8.73;;;2.17;;
64915;SDS011;51427;-27.442;153.014;2024-01-30T00:40:07;5.55;;;1.45;;
64915;SDS011;51427;-27.442;153.014;2024-01-30T00:42:41;7.55;;;2.10;;
64915;SDS011;51427;-27.442;153.014;2024-01-30T00:45:16;6.10;;;2.00;;
64915;SDS011;51427;-27.442;153.014;2024-01-30T00:47:44;5.43;;;1.77;;
64915;SDS011;51427;-27.442;153.014;2024-01-30T00:50:12;7.38;;;1.92;;
64915;SDS011;51427;-27.442;153.014;2024-01-30T00:52:39;10.07;;;1.95;;
64915;SDS011;51427;-27.442;153.014;2024-01-30T00:55:08;5.93;;;1.65;;
64915;SDS011;51427;-27.442;153.014;2024-01-30T00:57:35;6.82;;;1.50;;
64915;SDS011;51427;-27.442;153.014;2024-01-30T01:00:03;5.75;;;1.77;;
64915;SDS011;51427;-27.442;153.014;2024-01-30T01:02:34;5.32;;;1.52;;
64915;SDS011;51427;-27.442;153.014;2024-01-30T01:05:02;6.50;;;1.60;;
64915;SDS011;51427;-27.442;153.014;2024-01-30T01:07:30;6.72;;;1.70;;
64915;SDS011;51427;-27.442;153.014;2024-01-30T01:09:58;7.75;;;1.85;;
64915;SDS011;51427;-27.442;153.014;2024-01-30T01:12:25;4.95;;;1.90;;
64915;SDS011;51427;-27.442;153.014;2024-01-30T01:14:53;5.90;;;1.60;;
64915;SDS011;51427;-27.442;153.014;2024-01-30T01:17:21;6.80;;;1.73;;
64915;SDS011;51427;-27.442;153.014;2024-01-30T01:19:48;5.05;;;1.30;;
64915;SDS011;51427;-27.442;153.014;2024-01-30T01:22:16;5.38;;;1.75;;
64915;SDS011;51427;-27.442;153.014;2024-01-30T01:24:44;8.45;;;1.73;;
64915;SDS011;51427;-27.442;153.014;2024-01-30T01:27:11;7.88;;;2.10;;
64915;SDS011;51427;-27.442;153.014;2024-01-30T01:29:39;5.80;;;1.80;;
64915;SDS011;51427;-27.442;153.014;2024-01-30T01:32:07;6.25;;;1.48;;
64915;SDS011;51427;-27.442;153.014;2024-01-30T01:34:34;5.90;;;1.85;;
64915;SDS011;51427;-27.442;153.014;2024-01-30T01:37:02;4.50;;;1.42;;
64915;SDS011;51427;-27.442;153.014;2024-01-30T01:39:30;4.00;;;1.75;;
64915;SDS011;51427;-27.442;153.014;2024-01-30T01:41:58;6.85;;;1.73;;
64915;SDS011;51427;-27.442;153.014;2024-01-30T01:44:26;7.78;;;1.70;;
64915;SDS011;51427;-27.442;153.014;2024-01-30T01:46:54;7.78;;;2.28;;
64915;SDS011;51427;-27.442;153.014;2024-01-30T01:49:23;7.32;;;1.83;;
64915;SDS011;51427;-27.442;153.014;2024-01-30T01:51:51;9.07;;;2.45;;
64915;SDS011;51427;-27.442;153.014;2024-01-30T01:54:25;9.27;;;2.30;;
64915;SDS011;51427;-27.442;153.014;2024-01-30T01:56:53;9.18;;;2.47;;
64915;SDS011;51427;-27.442;153.014;2024-01-30T01:59:20;8.52;;;2.22;;
64915;SDS011;51427;-27.442;153.014;2024-01-30T02:01:49;7.55;;;2.13;;
64915;SDS011;51427;-27.442;153.014;2024-01-30T02:04:16;7.70;;;1.88;;
64915;SDS011;51427;-27.442;153.014;2024-01-30T02:06:44;11.52;;;2.80;;
64915;SDS011;51427;-27.442;153.014;2024-01-30T02:09:12;10.20;;;2.50;;
64915;SDS011;51427;-27.442;153.014;2024-01-30T02:11:39;11.73;;;2.38;;
64915;SDS011;51427;-27.442;153.014;2024-01-30T02:14:07;9.93;;;2.33;;
64915;SDS011;51427;-27.442;153.014;2024-01-30T02:16:35;9.90;;;2.10;;
64915;SDS011;51427;-27.442;153.014;2024-01-30T02:19:03;8.00;;;2.22;;
64915;SDS011;51427;-27.442;153.014;2024-01-30T02:21:31;8.18;;;2.38;;
64915;SDS011;51427;-27.442;153.014;2024-01-30T02:23:58;6.93;;;2.00;;
64915;SDS011;51427;-27.442;153.014;2024-01-30T02:26:27;7.28;;;1.90;;
64915;SDS011;51427;-27.442;153.014;2024-01-30T02:28:54;10.13;;;2.70;;
64915;SDS011;51427;-27.442;153.014;2024-01-30T02:31:22;10.23;;;2.47;;
64915;SDS011;51427;-27.442;153.014;2024-01-30T02:33:51;8.30;;;2.20;;
64915;SDS011;51427;-27.442;153.014;2024-01-30T02:36:18;10.15;;;2.17;;
64915;SDS011;51427;-27.442;153.014;2024-01-30T02:38:46;9.20;;;2.25;;
64915;SDS011;51427;-27.442;153.014;2024-01-30T02:41:14;8.20;;;1.77;;
64915;SDS011;51427;-27.442;153.014;2024-01-30T02:43:41;7.15;;;1.92;;
64915;SDS011;51427;-27.442;153.014;2024-01-30T02:46:09;7.13;;;1.83;;
64915;SDS011;51427;-27.442;153.014;2024-01-30T02:48:37;6.03;;;1.98;;
64915;SDS011;51427;-27.442;153.014;2024-01-30T02:51:05;5.28;;;1.48;;
64915;SDS011;51427;-27.442;153.014;2024-01-30T02:53:33;6.43;;;1.70;;
64915;SDS011;51427;-27.442;153.014;2024-01-30T02:56:01;6.30;;;1.70;;
64915;SDS011;51427;-27.442;153.014;2024-01-30T02:58:29;9.55;;;2.55;;
64915;SDS011;51427;-27.442;153.014;2024-01-30T03:00:57;8.35;;;1.80;;
64915;SDS011;51427;-27.442;153.014;2024-01-30T03:03:24;8.77;;;2.33;;
64915;SDS011;51427;-27.442;153.014;2024-01-30T03:05:52;7.43;;;1.98;;
64915;SDS011;51427;-27.442;153.014;2024-01-30T03:08:20;6.13;;;2.05;;
64915;SDS011;51427;-27.442;153.014;2024-01-30T03:10:47;7.65;;;2.15;;
64915;SDS011;51427;-27.442;153.014;2024-01-30T03:13:15;8.93;;;2.05;;
64915;SDS011;51427;-27.442;153.014;2024-01-30T03:15:43;6.85;;;1.65;;
64915;SDS011;51427;-27.442;153.014;2024-01-30T03:18:10;9.25;;;1.92;;
64915;SDS011;51427;-27.442;153.014;2024-01-30T03:20:38;9.20;;;2.50;;
64915;SDS011;51427;-27.442;153.014;2024-01-30T03:23:06;9.35;;;1.98;;
64915;SDS011;51427;-27.442;153.014;2024-01-30T03:25:33;4.90;;;2.20;;
64915;SDS011;51427;-27.442;153.014;2024-01-30T03:28:01;8.73;;;1.85;;
64915;SDS011;51427;-27.442;153.014;2024-01-30T03:30:29;7.03;;;2.20;;
64915;SDS011;51427;-27.442;153.014;2024-01-30T03:32:58;9.23;;;1.95;;
64915;SDS011;51427;-27.442;153.014;2024-01-30T03:35:25;10.43;;;2.65;;
64915;SDS011;51427;-27.442;153.014;2024-01-30T03:37:53;10.63;;;2.50;;
64915;SDS011;51427;-27.442;153.014;2024-01-30T03:40:20;8.57;;;2.00;;
64915;SDS011;51427;-27.442;153.014;2024-01-30T03:42:48;7.22;;;2.13;;
64915;SDS011;51427;-27.442;153.014;2024-01-30T03:45:16;9.00;;;2.38;;
64915;SDS011;51427;-27.442;153.014;2024-01-30T03:47:45;7.32;;;1.95;;
64915;SDS011;51427;-27.442;153.014;2024-01-30T03:50:13;5.13;;;2.00;;
64915;SDS011;51427;-27.442;153.014;2024-01-30T03:52:40;8.95;;;2.03;;
64915;SDS011;51427;-27.442;153.014;2024-01-30T03:55:08;9.55;;;1.80;;
64915;SDS011;51427;-27.442;153.014;2024-01-30T03:57:36;7.82;;;2.13;;
64915;SDS011;51427;-27.442;153.014;2024-01-30T04:00:03;9.50;;;2.20;;
64915;SDS011;51427;-27.442;153.014;2024-01-30T04:02:31;7.57;;;1.63;;
64915;SDS011;51427;-27.442;153.014;2024-01-30T04:04:59;7.40;;;1.83;;
64915;SDS011;51427;-27.442;153.014;2024-01-30T04:07:27;8.02;;;1.60;;
64915;SDS011;51427;-27.442;153.014;2024-01-30T04:09:55;4.82;;;1.52;;
64915;SDS011;51427;-27.442;153.014;2024-01-30T04:12:22;8.77;;;2.15;;
64915;SDS011;51427;-27.442;153.014;2024-01-30T04:14:50;10.13;;;2.03;;
64915;SDS011;51427;-27.442;153.014;2024-01-30T04:17:17;6.97;;;2.20;;
64915;SDS011;51427;-27.442;153.014;2024-01-30T04:19:45;8.70;;;2.30;;
64915;SDS011;51427;-27.442;153.014;2024-01-30T04:22:13;8.25;;;2.30;;
64915;SDS011;51427;-27.442;153.014;2024-01-30T04:24:40;7.93;;;2.20;;
64915;SDS011;51427;-27.442;153.014;2024-01-30T04:27:08;9.93;;;2.15;;
64915;SDS011;51427;-27.442;153.014;2024-01-30T04:29:36;7.70;;;1.77;;
64915;SDS011;51427;-27.442;153.014;2024-01-30T04:32:03;7.10;;;2.00;;
64915;SDS011;51427;-27.442;153.014;2024-01-30T04:34:31;7.80;;;2.00;;
64915;SDS011;51427;-27.442;153.014;2024-01-30T04:36:59;7.18;;;2.00;;
64915;SDS011;51427;-27.442;153.014;2024-01-30T04:39:27;8.70;;;2.13;;
64915;SDS011;51427;-27.442;153.014;2024-01-30T04:41:54;6.00;;;1.88;;
64915;SDS011;51427;-27.442;153.014;2024-01-30T04:44:22;8.32;;;2.33;;
64915;SDS011;51427;-27.442;153.014;2024-01-30T04:46:49;10.40;;;2.13;;
64915;SDS011;51427;-27.442;153.014;2024-01-30T04:49:18;4.80;;;1.90;;
64915;SDS011;51427;-27.442;153.014;2024-01-30T04:51:46;6.20;;;2.03;;
64915;SDS011;51427;-27.442;153.014;2024-01-30T04:54:14;5.90;;;1.65;;
64915;SDS011;51427;-27.442;153.014;2024-01-30T04:56:41;5.75;;;2.03;;
64915;SDS011;51427;-27.442;153.014;2024-01-30T04:59:09;5.60;;;1.90;;
64915;SDS011;51427;-27.442;153.014;2024-01-30T05:01:37;5.20;;;1.73;;
64915;SDS011;51427;-27.442;153.014;2024-01-30T05:04:06;7.65;;;2.25;;
64915;SDS011;51427;-27.442;153.014;2024-01-30T05:06:35;6.05;;;2.20;;
64915;SDS011;51427;-27.442;153.014;2024-01-30T05:09:03;6.07;;;1.85;;
64915;SDS011;51427;-27.442;153.014;2024-01-30T05:11:30;10.02;;;2.22;;
64915;SDS011;51427;-27.442;153.014;2024-01-30T05:14:03;6.10;;;1.95;;
64915;SDS011;51427;-27.442;153.014;2024-01-30T05:16:31;7.25;;;2.10;;
64915;SDS011;51427;-27.442;153.014;2024-01-30T05:18:59;7.50;;;2.33;;
64915;SDS011;51427;-27.442;153.014;2024-01-30T05:21:26;7.80;;;2.53;;
64915;SDS011;51427;-27.442;153.014;2024-01-30T05:23:54;7.60;;;2.13;;
64915;SDS011;51427;-27.442;153.014;2024-01-30T05:26:22;9.52;;;2.50;;
64915;SDS011;51427;-27.442;153.014;2024-01-30T05:28:50;10.55;;;2.40;;
64915;SDS011;51427;-27.442;153.014;2024-01-30T05:31:17;9.52;;;2.83;;
64915;SDS011;51427;-27.442;153.014;2024-01-30T05:33:45;9.48;;;2.28;;
64915;SDS011;51427;-27.442;153.014;2024-01-30T05:36:13;6.55;;;2.13;;
64915;SDS011;51427;-27.442;153.014;2024-01-30T05:38:41;12.73;;;2.63;;
64915;SDS011;51427;-27.442;153.014;2024-01-30T05:41:09;8.98;;;2.13;;
64915;SDS011;51427;-27.442;153.014;2024-01-30T05:43:37;7.30;;;1.95;;
64915;SDS011;51427;-27.442;153.014;2024-01-30T05:46:04;9.18;;;2.42;;
64915;SDS011;51427;-27.442;153.014;2024-01-30T05:48:33;10.52;;;2.67;;
64915;SDS011;51427;-27.442;153.014;2024-01-30T05:51:01;9.30;;;2.33;;
64915;SDS011;51427;-27.442;153.014;2024-01-30T05:53:29;10.10;;;2.40;;
64915;SDS011;51427;-27.442;153.014;2024-01-30T05:55:57;9.35;;;2.30;;
64915;SDS011;51427;-27.442;153.014;2024-01-30T05:58:25;9.57;;;2.17;;
64915;SDS011;51427;-27.442;153.014;2024-01-30T06:00:53;4.68;;;2.10;;
64915;SDS011;51427;-27.442;153.014;2024-01-30T06:03:21;8.75;;;2.55;;
64915;SDS011;51427;-27.442;153.014;2024-01-30T06:05:48;8.52;;;2.25;;
64915;SDS011;51427;-27.442;153.014;2024-01-30T06:08:16;8.43;;;2.65;;
64915;SDS011;51427;-27.442;153.014;2024-01-30T06:10:44;7.95;;;2.30;;
64915;SDS011;51427;-27.442;153.014;2024-01-30T06:13:11;10.30;;;2.38;;
64915;SDS011;51427;-27.442;153.014;2024-01-30T06:15:39;7.75;;;2.13;;
64915;SDS011;51427;-27.442;153.014;2024-01-30T06:18:07;9.40;;;2.45;;
64915;SDS011;51427;-27.442;153.014;2024-01-30T06:20:35;7.15;;;2.20;;
64915;SDS011;51427;-27.442;153.014;2024-01-30T06:23:02;5.70;;;2.10;;
64915;SDS011;51427;-27.442;153.014;2024-01-30T06:25:30;9.35;;;2.20;;
64915;SDS011;51427;-27.442;153.014;2024-01-30T06:27:58;7.75;;;2.10;;
64915;SDS011;51427;-27.442;153.014;2024-01-30T06:30:25;6.18;;;1.75;;
64915;SDS011;51427;-27.442;153.014;2024-01-30T06:32:53;9.70;;;1.92;;
64915;SDS011;51427;-27.442;153.014;2024-01-30T06:35:20;6.93;;;2.55;;
64915;SDS011;51427;-27.442;153.014;2024-01-30T06:37:48;10.10;;;2.28;;
64915;SDS011;51427;-27.442;153.014;2024-01-30T06:40:16;8.10;;;2.20;;
64915;SDS011;51427;-27.442;153.014;2024-01-30T06:42:43;11.35;;;2.30;;
64915;SDS011;51427;-27.442;153.014;2024-01-30T06:45:11;6.78;;;2.22;;
64915;SDS011;51427;-27.442;153.014;2024-01-30T06:47:39;6.07;;;2.08;;
64915;SDS011;51427;-27.442;153.014;2024-01-30T06:50:06;7.45;;;1.88;;
64915;SDS011;51427;-27.442;153.014;2024-01-30T06:52:34;8.82;;;2.38;;
64915;SDS011;51427;-27.442;153.014;2024-01-30T06:55:02;11.00;;;2.63;;
64915;SDS011;51427;-27.442;153.014;2024-01-30T06:57:30;6.00;;;1.90;;
64915;SDS011;51427;-27.442;153.014;2024-01-30T06:59:57;7.65;;;1.70;;
64915;SDS011;51427;-27.442;153.014;2024-01-30T07:02:25;11.15;;;2.28;;
64915;SDS011;51427;-27.442;153.014;2024-01-30T07:04:53;6.13;;;1.98;;
64915;SDS011;51427;-27.442;153.014;2024-01-30T07:07:20;12.20;;;2.35;;
64915;SDS011;51427;-27.442;153.014;2024-01-30T07:09:48;8.38;;;2.25;;
64915;SDS011;51427;-27.442;153.014;2024-01-30T07:12:18;8.68;;;1.90;;
64915;SDS011;51427;-27.442;153.014;2024-01-30T07:14:46;10.25;;;2.60;;
64915;SDS011;51427;-27.442;153.014;2024-01-30T07:17:14;8.25;;;2.17;;
64915;SDS011;51427;-27.442;153.014;2024-01-30T07:19:41;7.03;;;2.00;;
64915;SDS011;51427;-27.442;153.014;2024-01-30T07:22:09;10.10;;;2.20;;
64915;SDS011;51427;-27.442;153.014;2024-01-30T07:24:41;5.85;;;1.85;;
64915;SDS011;51427;-27.442;153.014;2024-01-30T07:27:15;6.10;;;1.83;;
64915;SDS011;51427;-27.442;153.014;2024-01-30T07:29:43;11.45;;;2.13;;
64915;SDS011;51427;-27.442;153.014;2024-01-30T07:32:11;6.63;;;1.77;;
64915;SDS011;51427;-27.442;153.014;2024-01-30T07:34:38;11.38;;;2.65;;
64915;SDS011;51427;-27.442;153.014;2024-01-30T07:37:06;6.80;;;1.88;;
64915;SDS011;51427;-27.442;153.014;2024-01-30T07:39:38;5.93;;;1.52;;
64915;SDS011;51427;-27.442;153.014;2024-01-30T07:42:06;10.45;;;1.90;;
64915;SDS011;51427;-27.442;153.014;2024-01-30T07:44:34;7.57;;;1.90;;
64915;SDS011;51427;-27.442;153.014;2024-01-30T07:47:02;7.60;;;2.40;;
64915;SDS011;51427;-27.442;153.014;2024-01-30T07:49:31;7.60;;;2.03;;
64915;SDS011;51427;-27.442;153.014;2024-01-30T07:51:59;9.48;;;2.20;;
64915;SDS011;51427;-27.442;153.014;2024-01-30T07:54:30;10.93;;;2.47;;
64915;SDS011;51427;-27.442;153.014;2024-01-30T07:57:04;7.47;;;1.73;;
64915;SDS011;51427;-27.442;153.014;2024-01-30T07:59:32;9.32;;;1.92;;
64915;SDS011;51427;-27.442;153.014;2024-01-30T08:02:00;7.47;;;1.80;;
64915;SDS011;51427;-27.442;153.014;2024-01-30T08:04:28;8.77;;;1.85;;
64915;SDS011;51427;-27.442;153.014;2024-01-30T08:06:55;8.70;;;1.88;;
64915;SDS011;51427;-27.442;153.014;2024-01-30T08:09:23;7.22;;;1.88;;
64915;SDS011;51427;-27.442;153.014;2024-01-30T08:11:50;9.32;;;2.40;;
64915;SDS011;51427;-27.442;153.014;2024-01-30T08:14:18;7.82;;;2.00;;
64915;SDS011;51427;-27.442;153.014;2024-01-30T08:16:46;7.63;;;1.92;;
64915;SDS011;51427;-27.442;153.014;2024-01-30T08:19:14;10.27;;;2.33;;
64915;SDS011;51427;-27.442;153.014;2024-01-30T08:21:42;4.95;;;1.58;;
64915;SDS011;51427;-27.442;153.014;2024-01-30T08:24:09;8.38;;;2.05;;
64915;SDS011;51427;-27.442;153.014;2024-01-30T08:26:37;6.45;;;2.40;;
64915;SDS011;51427;-27.442;153.014;2024-01-30T08:29:05;8.82;;;1.98;;
64915;SDS011;51427;-27.442;153.014;2024-01-30T08:31:32;8.07;;;2.10;;
64915;SDS011;51427;-27.442;153.014;2024-01-30T08:34:00;12.50;;;2.20;;
64915;SDS011;51427;-27.442;153.014;2024-01-30T08:36:28;5.90;;;2.17;;
64915;SDS011;51427;-27.442;153.014;2024-01-30T08:38:55;6.22;;;1.90;;
64915;SDS011;51427;-27.442;153.014;2024-01-30T08:41:23;9.02;;;2.40;;
64915;SDS011;51427;-27.442;153.014;2024-01-30T08:43:51;10.27;;;2.25;;
64915;SDS011;51427;-27.442;153.014;2024-01-30T08:46:20;8.63;;;2.05;;
64915;SDS011;51427;-27.442;153.014;2024-01-30T08:48:47;7.57;;;2.05;;
64915;SDS011;51427;-27.442;153.014;2024-01-30T08:51:15;7.72;;;2.42;;
64915;SDS011;51427;-27.442;153.014;2024-01-30T08:53:43;7.13;;;2.15;;
64915;SDS011;51427;-27.442;153.014;2024-01-30T08:56:10;9.48;;;2.38;;
64915;SDS011;51427;-27.442;153.014;2024-01-30T08:58:39;12.23;;;2.53;;
64915;SDS011;51427;-27.442;153.014;2024-01-30T09:01:06;10.73;;;2.05;;
64915;SDS011;51427;-27.442;153.014;2024-01-30T09:03:34;8.05;;;2.03;;
64915;SDS011;51427;-27.442;153.014;2024-01-30T09:06:08;10.93;;;2.28;;
64915;SDS011;51427;-27.442;153.014;2024-01-30T09:08:36;10.23;;;2.58;;
64915;SDS011;51427;-27.442;153.014;2024-01-30T09:11:11;10.45;;;2.20;;
64915;SDS011;51427;-27.442;153.014;2024-01-30T09:13:39;12.70;;;3.03;;
64915;SDS011;51427;-27.442;153.014;2024-01-30T09:16:07;8.27;;;2.03;;
64915;SDS011;51427;-27.442;153.014;2024-01-30T09:18:35;12.77;;;2.80;;
64915;SDS011;51427;-27.442;153.014;2024-01-30T09:21:03;11.00;;;2.47;;
64915;SDS011;51427;-27.442;153.014;2024-01-30T09:23:30;9.55;;;2.60;;
64915;SDS011;51427;-27.442;153.014;2024-01-30T09:25:59;12.82;;;2.50;;
64915;SDS011;51427;-27.442;153.014;2024-01-30T09:28:27;8.52;;;2.40;;
64915;SDS011;51427;-27.442;153.014;2024-01-30T09:30:55;7.60;;;2.40;;
64915;SDS011;51427;-27.442;153.014;2024-01-30T09:33:23;10.80;;;2.35;;
64915;SDS011;51427;-27.442;153.014;2024-01-30T09:35:51;13.43;;;2.65;;
64915;SDS011;51427;-27.442;153.014;2024-01-30T09:38:18;9.40;;;2.20;;
64915;SDS011;51427;-27.442;153.014;2024-01-30T09:40:48;12.27;;;2.60;;
64915;SDS011;51427;-27.442;153.014;2024-01-30T09:43:23;8.50;;;2.42;;
64915;SDS011;51427;-27.442;153.014;2024-01-30T09:45:51;11.02;;;2.83;;
64915;SDS011;51427;-27.442;153.014;2024-01-30T09:48:21;13.35;;;3.03;;
64915;SDS011;51427;-27.442;153.014;2024-01-30T09:50:49;16.48;;;3.30;;
64915;SDS011;51427;-27.442;153.014;2024-01-30T09:53:17;10.90;;;2.60;;
64915;SDS011;51427;-27.442;153.014;2024-01-30T09:55:45;14.88;;;2.65;;
64915;SDS011;51427;-27.442;153.014;2024-01-30T09:58:13;11.15;;;2.92;;
64915;SDS011;51427;-27.442;153.014;2024-01-30T10:00:43;12.38;;;2.95;;
64915;SDS011;51427;-27.442;153.014;2024-01-30T10:03:11;12.18;;;2.60;;
64915;SDS011;51427;-27.442;153.014;2024-01-30T10:05:40;20.58;;;3.65;;
64915;SDS011;51427;-27.442;153.014;2024-01-30T10:08:08;13.10;;;2.92;;
64915;SDS011;51427;-27.442;153.014;2024-01-30T10:10:36;15.10;;;3.22;;
64915;SDS011;51427;-27.442;153.014;2024-01-30T10:13:04;7.25;;;2.45;;
64915;SDS011;51427;-27.442;153.014;2024-01-30T10:15:32;12.15;;;2.97;;
64915;SDS011;51427;-27.442;153.014;2024-01-30T10:18:01;13.13;;;3.28;;
64915;SDS011;51427;-27.442;153.014;2024-01-30T10:20:29;11.80;;;2.95;;
64915;SDS011;51427;-27.442;153.014;2024-01-30T10:22:56;12.32;;;2.90;;
64915;SDS011;51427;-27.442;153.014;2024-01-30T10:25:25;10.13;;;2.60;;
64915;SDS011;51427;-27.442;153.014;2024-01-30T10:27:53;10.77;;;2.65;;
64915;SDS011;51427;-27.442;153.014;2024-01-30T10:30:21;15.20;;;2.83;;
64915;SDS011;51427;-27.442;153.014;2024-01-30T10:32:49;16.85;;;2.83;;
64915;SDS011;51427;-27.442;153.014;2024-01-30T10:35:17;12.15;;;2.72;;
64915;SDS011;51427;-27.442;153.014;2024-01-30T10:37:48;18.20;;;3.70;;
64915;SDS011;51427;-27.442;153.014;2024-01-30T10:40:15;15.90;;;3.45;;
64915;SDS011;51427;-27.442;153.014;2024-01-30T10:42:43;10.70;;;2.90;;
64915;SDS011;51427;-27.442;153.014;2024-01-30T10:45:12;19.70;;;3.85;;
64915;SDS011;51427;-27.442;153.014;2024-01-30T10:47:50;13.75;;;3.17;;
64915;SDS011;51427;-27.442;153.014;2024-01-30T10:50:27;15.93;;;3.00;;
64915;SDS011;51427;-27.442;153.014;2024-01-30T10:52:55;13.82;;;3.38;;
64915;SDS011;51427;-27.442;153.014;2024-01-30T10:55:23;13.18;;;3.08;;
64915;SDS011;51427;-27.442;153.014;2024-01-30T10:57:50;16.00;;;3.33;;
64915;SDS011;51427;-27.442;153.014;2024-01-30T11:00:19;12.65;;;2.70;;
64915;SDS011;51427;-27.442;153.014;2024-01-30T11:02:49;13.18;;;3.10;;
64915;SDS011;51427;-27.442;153.014;2024-01-30T11:05:27;9.90;;;2.95;;
64915;SDS011;51427;-27.442;153.014;2024-01-30T11:07:55;15.23;;;3.47;;
64915;SDS011;51427;-27.442;153.014;2024-01-30T11:10:24;11.00;;;2.75;;
64915;SDS011;51427;-27.442;153.014;2024-01-30T11:12:52;14.82;;;2.83;;
64915;SDS011;51427;-27.442;153.014;2024-01-30T11:15:20;12.68;;;2.90;;
64915;SDS011;51427;-27.442;153.014;2024-01-30T11:20:30;12.90;;;2.92;;
64915;SDS011;51427;-27.442;153.014;2024-01-30T11:22:59;15.52;;;3.10;;
64915;SDS011;51427;-27.442;153.014;2024-01-30T11:25:31;18.35;;;2.80;;
64915;SDS011;51427;-27.442;153.014;2024-01-30T11:27:59;14.38;;;3.42;;
64915;SDS011;51427;-27.442;153.014;2024-01-30T11:30:28;11.98;;;2.78;;
64915;SDS011;51427;-27.442;153.014;2024-01-30T11:33:04;15.32;;;2.70;;
64915;SDS011;51427;-27.442;153.014;2024-01-30T11:38:00;14.88;;;3.50;;
64915;SDS011;51427;-27.442;153.014;2024-01-30T11:40:29;17.65;;;3.47;;
64915;SDS011;51427;-27.442;153.014;2024-01-30T11:42:59;14.95;;;3.17;;
64915;SDS011;51427;-27.442;153.014;2024-01-30T11:45:28;11.93;;;3.35;;
64915;SDS011;51427;-27.442;153.014;2024-01-30T11:47:57;11.23;;;2.88;;
64915;SDS011;51427;-27.442;153.014;2024-01-30T11:50:29;14.05;;;2.80;;
64915;SDS011;51427;-27.442;153.014;2024-01-30T11:52:58;17.20;;;3.03;;
64915;SDS011;51427;-27.442;153.014;2024-01-30T11:55:26;14.68;;;3.20;;
64915;SDS011;51427;-27.442;153.014;2024-01-30T11:57:55;12.57;;;2.97;;
64915;SDS011;51427;-27.442;153.014;2024-01-30T12:00:26;14.23;;;3.10;;
64915;SDS011;51427;-27.442;153.014;2024-01-30T12:02:55;17.33;;;3.58;;
64915;SDS011;51427;-27.442;153.014;2024-01-30T12:05:23;12.48;;;2.88;;
64915;SDS011;51427;-27.442;153.014;2024-01-30T12:07:51;9.32;;;2.67;;
64915;SDS011;51427;-27.442;153.014;2024-01-30T12:10:19;10.90;;;2.60;;
64915;SDS011;51427;-27.442;153.014;2024-01-30T12:12:48;15.95;;;2.92;;
64915;SDS011;51427;-27.442;153.014;2024-01-30T12:15:16;14.63;;;3.22;;
64915;SDS011;51427;-27.442;153.014;2024-01-30T12:17:47;16.30;;;3.08;;
64915;SDS011;51427;-27.442;153.014;2024-01-30T12:20:17;11.82;;;2.65;;
64915;SDS011;51427;-27.442;153.014;2024-01-30T12:22:49;11.45;;;2.47;;
64915;SDS011;51427;-27.442;153.014;2024-01-30T12:25:18;13.18;;;2.97;;
64915;SDS011;51427;-27.442;153.014;2024-01-30T12:27:47;16.67;;;3.00;;
64915;SDS011;51427;-27.442;153.014;2024-01-30T12:30:16;17.65;;;3.03;;
64915;SDS011;51427;-27.442;153.014;2024-01-30T12:32:46;10.75;;;2.80;;
64915;SDS011;51427;-27.442;153.014;2024-01-30T12:35:16;12.18;;;2.75;;
64915;SDS011;51427;-27.442;153.014;2024-01-30T12:37:44;12.25;;;2.60;;
64915;SDS011;51427;-27.442;153.014;2024-01-30T12:40:13;9.95;;;2.50;;
64915;SDS011;51427;-27.442;153.014;2024-01-30T12:42:41;13.05;;;3.22;;
64915;SDS011;51427;-27.442;153.014;2024-01-30T12:45:09;12.23;;;2.67;;
64915;SDS011;51427;-27.442;153.014;2024-01-30T12:47:36;13.90;;;3.03;;
64915;SDS011;51427;-27.442;153.014;2024-01-30T12:50:03;10.82;;;2.88;;
64915;SDS011;51427;-27.442;153.014;2024-01-30T12:52:31;17.33;;;3.22;;
64915;SDS011;51427;-27.442;153.014;2024-01-30T12:54:58;15.20;;;2.78;;
64915;SDS011;51427;-27.442;153.014;2024-01-30T12:57:26;10.90;;;3.22;;
64915;SDS011;51427;-27.442;153.014;2024-01-30T12:59:53;11.68;;;2.63;;
64915;SDS011;51427;-27.442;153.014;2024-01-30T13:02:20;11.77;;;2.63;;
64915;SDS011;51427;-27.442;153.014;2024-01-30T13:04:48;14.20;;;3.00;;
64915;SDS011;51427;-27.442;153.014;2024-01-30T13:07:15;15.50;;;3.10;;
64915;SDS011;51427;-27.442;153.014;2024-01-30T13:09:43;17.77;;;2.97;;
64915;SDS011;51427;-27.442;153.014;2024-01-30T13:12:10;11.43;;;2.58;;
64915;SDS011;51427;-27.442;153.014;2024-01-30T13:14:38;16.42;;;2.45;;
64915;SDS011;51427;-27.442;153.014;2024-01-30T13:17:05;11.30;;;2.67;;
64915;SDS011;51427;-27.442;153.014;2024-01-30T13:19:32;10.65;;;2.72;;
64915;SDS011;51427;-27.442;153.014;2024-01-30T13:22:00;18.30;;;3.42;;
64915;SDS011;51427;-27.442;153.014;2024-01-30T13:24:27;10.85;;;2.75;;
64915;SDS011;51427;-27.442;153.014;2024-01-30T13:26:54;10.95;;;2.70;;
64915;SDS011;51427;-27.442;153.014;2024-01-30T13:29:22;13.60;;;2.90;;
64915;SDS011;51427;-27.442;153.014;2024-01-30T13:31:49;15.02;;;2.60;;
64915;SDS011;51427;-27.442;153.014;2024-01-30T13:34:16;10.80;;;2.75;;
64915;SDS011;51427;-27.442;153.014;2024-01-30T13:36:43;11.07;;;2.42;;
64915;SDS011;51427;-27.442;153.014;2024-01-30T13:39:11;14.73;;;2.85;;
64915;SDS011;51427;-27.442;153.014;2024-01-30T13:41:38;11.77;;;2.63;;
64915;SDS011;51427;-27.442;153.014;2024-01-30T13:44:05;14.32;;;2.72;;
64915;SDS011;51427;-27.442;153.014;2024-01-30T13:46:33;12.30;;;3.15;;
64915;SDS011;51427;-27.442;153.014;2024-01-30T13:49:00;12.73;;;2.45;;
64915;SDS011;51427;-27.442;153.014;2024-01-30T13:51:28;13.55;;;2.50;;
64915;SDS011;51427;-27.442;153.014;2024-01-30T13:53:55;10.93;;;2.85;;
64915;SDS011;51427;-27.442;153.014;2024-01-30T13:56:23;10.07;;;2.63;;
64915;SDS011;51427;-27.442;153.014;2024-01-30T13:58:51;12.88;;;2.95;;
64915;SDS011;51427;-27.442;153.014;2024-01-30T14:01:18;8.98;;;2.78;;
64915;SDS011;51427;-27.442;153.014;2024-01-30T14:03:46;13.07;;;3.33;;
64915;SDS011;51427;-27.442;153.014;2024-01-30T14:06:13;13.30;;;3.28;;
64915;SDS011;51427;-27.442;153.014;2024-01-30T14:08:40;14.00;;;2.38;;
64915;SDS011;51427;-27.442;153.014;2024-01-30T14:11:07;8.73;;;2.42;;
64915;SDS011;51427;-27.442;153.014;2024-01-30T14:13:35;7.65;;;2.40;;